Runaway Bay, Texas
Current Conditions -  °F | °C
As of 10:15 PM on Wednesday 28 Jan 2015 (Local Time) from KXBP Reporting Station
Scattered Clouds Scattered Clouds  
Wind Chill: 66°   Ceiling: Unl
Heat Index: 66°   Visibility: 10mi
Dew Point: 43°   Wind: 8mph
Humidity: 43%   Direction: 210°SSW
Pressure: 30.02"   Gusts: NA
Location:  33.1691°N, 97.8246°W
Report Text: KXBP 290415Z AUTO 21007KT 10SM SCT095 19/06 A3002 RMK AO2 T01900060
Loading
Personal Weather Stations






























Interactive Weather Map New forecast layout! Learn more

10-Day Weather Forecast

Advertisements
Track Severe Weather on mobile